createdAt,value
2018-10-19T00:01:45.500Z,101181.02
2018-10-19T00:04:13.709Z,101183.66
2018-10-19T00:06:41.853Z,101173.84
2018-10-19T00:09:10.850Z,101180.73
2018-10-19T00:11:39.143Z,101172.31
2018-10-19T00:14:07.327Z,101172.27
2018-10-19T00:16:35.668Z,101171.80
2018-10-19T00:19:03.894Z,101166.78
2018-10-19T00:21:32.244Z,101171.80
2018-10-19T00:24:00.417Z,101168.65
2018-10-19T00:26:28.576Z,101175.31
2018-10-19T00:28:56.755Z,101172.39
2018-10-19T00:31:25.106Z,101174.91
2018-10-19T00:33:53.268Z,101175.09
2018-10-19T00:36:21.588Z,101179.59
2018-10-19T00:38:49.966Z,101172.60
2018-10-19T00:41:18.398Z,101176.45
2018-10-19T00:43:46.600Z,101175.67
2018-10-19T00:46:14.815Z,101163.16
2018-10-19T00:48:43.155Z,101166.38
2018-10-19T00:51:11.522Z,101162.94
2018-10-19T00:53:39.568Z,101164.84
2018-10-19T00:56:07.921Z,101160.30
2018-10-19T00:58:36.041Z,101156.97
2018-10-19T01:01:04.270Z,101157.30
2018-10-19T01:03:32.591Z,101146.47
2018-10-19T01:06:00.730Z,101147.64
2018-10-19T01:08:29.009Z,101147.13
2018-10-19T01:10:57.178Z,101146.22
2018-10-19T01:13:25.383Z,101157.56
2018-10-19T01:15:53.508Z,101152.98
2018-10-19T01:18:21.636Z,101150.72
2018-10-19T01:20:50.055Z,101150.76
2018-10-19T01:23:18.228Z,101154.84
2018-10-19T01:25:46.384Z,101154.16
2018-10-19T01:28:14.646Z,101161.36
2018-10-19T01:30:42.763Z,101158.25
2018-10-19T01:33:11.134Z,101169.75
2018-10-19T01:35:39.208Z,101169.59
2018-10-19T01:38:07.573Z,101166.77
2018-10-19T01:40:35.747Z,101169.08
2018-10-19T01:43:03.858Z,101166.96
2018-10-19T01:45:32.329Z,101168.61
2018-10-19T01:48:00.605Z,101168.47
2018-10-19T01:50:28.778Z,101171.20
2018-10-19T01:52:57.078Z,101171.83
2018-10-19T01:55:25.240Z,101170.88
2018-10-19T01:57:53.392Z,101175.81
2018-10-19T02:00:21.596Z,101173.36
2018-10-19T02:02:49.940Z,101178.52
2018-10-19T02:05:18.270Z,101174.76
2018-10-19T02:07:46.676Z,101176.41
2018-10-19T02:10:14.994Z,101179.04
2018-10-19T02:12:43.065Z,101177.80
2018-10-19T02:15:11.648Z,101185.38
2018-10-19T02:17:39.704Z,101183.47
2018-10-19T02:20:08.029Z,101187.67
2018-10-19T02:22:36.395Z,101187.78
2018-10-19T02:25:05.189Z,101186.31
2018-10-19T02:27:33.526Z,101179.50
2018-10-19T02:30:01.925Z,101179.50
2018-10-19T02:32:30.279Z,101186.78
2018-10-19T02:34:58.476Z,101189.38
2018-10-19T02:37:26.659Z,101184.51
2018-10-19T02:39:54.970Z,101187.30
2018-10-19T02:42:23.216Z,101191.38
2018-10-19T02:44:51.361Z,101188.81
2018-10-19T02:47:19.491Z,101192.34
2018-10-19T02:49:47.801Z,101188.62
2018-10-19T02:52:15.985Z,101187.77
2018-10-19T02:54:44.139Z,101189.86
2018-10-19T02:57:12.357Z,101192.37
2018-10-19T02:59:40.500Z,101195.72
2018-10-19T03:02:08.627Z,101196.67
2018-10-19T03:04:37.016Z,101198.51
2018-10-19T03:07:05.758Z,101193.41
2018-10-19T03:09:33.866Z,101192.41
2018-10-19T03:12:02.088Z,101195.20
2018-10-19T03:14:30.230Z,101191.25
2018-10-19T03:16:58.412Z,101195.95
2018-10-19T03:19:26.662Z,101195.81
2018-10-19T03:21:54.805Z,101194.80
2018-10-19T03:24:23.205Z,101204.37
2018-10-19T03:26:51.320Z,101193.22
2018-10-19T03:29:19.533Z,101190.94
2018-10-19T03:31:47.665Z,101189.80
2018-10-19T03:34:15.980Z,101194.58
2018-10-19T03:36:44.102Z,101197.06
2018-10-19T03:39:12.456Z,101191.23
2018-10-19T03:41:40.520Z,101197.78
2018-10-19T03:44:08.634Z,101191.82
2018-10-19T03:46:36.970Z,101199.11
2018-10-19T03:49:05.763Z,101192.95
2018-10-19T03:51:34.088Z,101195.33
2018-10-19T03:54:02.496Z,101191.06
2018-10-19T03:56:30.586Z,101199.32
2018-10-19T03:58:58.756Z,101200.58
2018-10-19T04:01:26.980Z,101210.31
2018-10-19T04:03:55.155Z,101206.72
2018-10-19T04:06:23.458Z,101202.52
2018-10-19T04:08:51.781Z,101206.64
2018-10-19T04:11:20.121Z,101202.66
2018-10-19T04:13:48.328Z,101210.38
2018-10-19T04:16:16.550Z,101211.67
2018-10-19T04:18:44.697Z,101211.60
2018-10-19T04:21:12.871Z,101209.41
2018-10-19T04:23:40.967Z,101218.42
2018-10-19T04:26:09.349Z,101216.36
2018-10-19T04:28:37.461Z,101219.56
2018-10-19T04:31:05.805Z,101215.18
2018-10-19T04:33:33.973Z,101215.69
2018-10-19T04:36:02.393Z,101220.37
2018-10-19T04:38:30.548Z,101215.38
2018-10-19T04:40:58.905Z,101218.42
2018-10-19T04:43:27.079Z,101217.95
2018-10-19T04:45:55.565Z,101224.42
2018-10-19T04:48:23.723Z,101222.33
2018-10-19T04:50:52.107Z,101223.34
2018-10-19T04:53:20.360Z,101222.23
2018-10-19T04:55:48.768Z,101225.59
2018-10-19T04:58:16.922Z,101223.59
2018-10-19T05:00:45.168Z,101222.16
2018-10-19T05:03:13.401Z,101234.05
2018-10-19T05:05:41.547Z,101233.75
2018-10-19T05:08:09.771Z,101238.64
2018-10-19T05:10:37.922Z,101245.34
2018-10-19T05:13:06.091Z,101245.44
2018-10-19T05:15:34.215Z,101246.75
2018-10-19T05:18:02.490Z,101252.03
2018-10-19T05:20:30.708Z,101252.34
2018-10-19T05:22:58.858Z,101247.33
2018-10-19T05:25:27.098Z,101252.27
2018-10-19T05:27:55.244Z,101250.48
2018-10-19T05:30:23.434Z,101252.08
2018-10-19T05:32:51.610Z,101256.50
2018-10-19T05:35:19.798Z,101258.70
2018-10-19T05:37:48.184Z,101264.52
2018-10-19T05:40:16.336Z,101263.32
2018-10-19T05:42:44.660Z,101257.20
2018-10-19T05:45:13.144Z,101263.22
2018-10-19T05:47:41.330Z,101266.71
2018-10-19T05:50:10.897Z,101269.66
2018-10-19T05:52:39.338Z,101273.46
2018-10-19T05:55:08.382Z,101268.95
2018-10-19T05:57:36.710Z,101268.69
2018-10-19T06:00:06.555Z,101272.29
2018-10-19T06:02:34.846Z,101278.84
2018-10-19T06:05:03.026Z,101289.11
2018-10-19T06:07:31.167Z,101285.82
2018-10-19T06:09:59.355Z,101293.65
2018-10-19T06:12:27.489Z,101299.19
2018-10-19T06:14:55.899Z,101295.00
2018-10-19T06:17:24.094Z,101297.64
2018-10-19T06:19:52.367Z,101291.55
2018-10-19T06:22:20.659Z,101296.30
2018-10-19T06:24:48.851Z,101302.59
2018-10-19T06:27:17.017Z,101305.01
2018-10-19T06:29:45.177Z,101303.70
2018-10-19T06:32:13.322Z,101300.86
2018-10-19T06:34:41.485Z,101302.89
2018-10-19T06:37:09.701Z,101302.37
2018-10-19T06:39:37.916Z,101302.44
2018-10-19T06:42:06.170Z,101299.00
2018-10-19T06:44:34.331Z,101300.69
2018-10-19T06:47:02.720Z,101310.08
2018-10-19T06:49:30.885Z,101313.95
2018-10-19T06:51:59.291Z,101309.73
2018-10-19T06:54:27.453Z,101310.27
2018-10-19T06:56:55.561Z,101309.89
2018-10-19T06:59:23.824Z,101319.64
2018-10-19T07:01:52.269Z,101315.41
2018-10-19T07:04:20.565Z,101315.50
2018-10-19T07:06:48.801Z,101323.20
2018-10-19T07:09:16.977Z,101322.08
2018-10-19T07:11:45.144Z,101323.49
2018-10-19T07:14:13.667Z,101331.49
2018-10-19T07:16:41.838Z,101328.69
2018-10-19T07:19:10.283Z,101326.02
2018-10-19T07:21:38.616Z,101336.55
2018-10-19T07:24:06.774Z,101336.89
2018-10-19T07:26:35.076Z,101335.23
2018-10-19T07:29:03.575Z,101344.08
2018-10-19T07:31:31.740Z,101340.95
2018-10-19T07:33:59.898Z,101341.55
2018-10-19T07:36:28.650Z,101344.11
2018-10-19T07:38:56.785Z,101339.42
2018-10-19T07:41:24.955Z,101340.59
2018-10-19T07:43:54.078Z,101343.89
2018-10-19T07:46:22.294Z,101350.95
2018-10-19T07:48:50.508Z,101351.88
2018-10-19T07:51:18.663Z,101351.61
2018-10-19T07:53:46.786Z,101351.94
2018-10-19T07:56:14.988Z,101346.86
2018-10-19T07:58:43.117Z,101347.72
2018-10-19T08:01:12.387Z,101358.75
2018-10-19T08:03:40.511Z,101353.30
2018-10-19T08:06:09.146Z,101354.80
2018-10-19T08:08:37.305Z,101355.59
2018-10-19T08:11:05.856Z,101356.82
2018-10-19T08:13:34.028Z,101359.53
2018-10-19T08:16:03.087Z,101361.20
2018-10-19T08:18:31.441Z,101356.82
2018-10-19T08:20:59.691Z,101360.66
2018-10-19T08:23:28.467Z,101362.25
2018-10-19T08:25:56.783Z,101365.27
2018-10-19T08:28:24.936Z,101367.77
2018-10-19T08:30:53.089Z,101364.02
2018-10-19T08:33:21.441Z,101370.86
2018-10-19T08:35:49.727Z,101365.99
2018-10-19T08:38:18.010Z,101371.08
2018-10-19T08:40:46.161Z,101368.48
2018-10-19T08:43:14.466Z,101379.02
2018-10-19T08:45:42.749Z,101384.74
2018-10-19T08:48:10.931Z,101378.86
2018-10-19T08:50:39.321Z,101380.55
2018-10-19T08:53:07.469Z,101372.63
2018-10-19T08:55:36.223Z,101371.50
2018-10-19T08:58:04.634Z,101373.78
2018-10-19T09:00:32.733Z,101375.90
2018-10-19T09:03:01.074Z,101385.66
2018-10-19T09:05:29.240Z,101380.95
2018-10-19T09:07:57.681Z,101376.25
2018-10-19T09:10:25.835Z,101379.84
2018-10-19T09:12:54.097Z,101384.93
2018-10-19T09:15:22.300Z,101384.45
2018-10-19T09:17:50.430Z,101388.59
2018-10-19T09:20:18.623Z,101386.67
2018-10-19T09:22:46.868Z,101390.98
2018-10-19T09:25:15.320Z,101388.60
2018-10-19T09:27:43.496Z,101391.77
2018-10-19T09:30:11.678Z,101387.41
2018-10-19T09:32:40.403Z,101387.92
2018-10-19T09:35:08.682Z,101388.70
2018-10-19T09:37:36.697Z,101385.27
2018-10-19T09:40:05.210Z,101384.13
2018-10-19T09:42:33.457Z,101385.05
2018-10-19T09:45:01.983Z,101381.30
2018-10-19T09:47:30.161Z,101382.61
2018-10-19T09:49:58.346Z,101386.69
2018-10-19T09:52:27.301Z,101380.23
2018-10-19T09:54:56.332Z,101383.92
2018-10-19T09:57:24.444Z,101390.37
2018-10-19T09:59:52.630Z,101394.20
2018-10-19T10:02:20.762Z,101387.64
2018-10-19T10:04:48.998Z,101388.03
2018-10-19T10:07:17.138Z,101389.33
2018-10-19T10:09:45.310Z,101382.61
2018-10-19T10:12:13.429Z,101374.34
2018-10-19T10:14:41.711Z,101379.61
2018-10-19T10:17:09.836Z,101378.30
2018-10-19T10:19:38.059Z,101382.36
2018-10-19T10:22:06.309Z,101383.18
2018-10-19T10:24:34.552Z,101384.52
2018-10-19T10:27:02.757Z,101390.95
2018-10-19T10:29:30.915Z,101388.44
2018-10-19T10:31:59.148Z,101383.26
2018-10-19T10:34:27.277Z,101380.22
2018-10-19T10:36:55.449Z,101382.80
2018-10-19T10:39:23.710Z,101388.41
2018-10-19T10:41:51.836Z,101385.53
2018-10-19T10:44:19.989Z,101384.97
2018-10-19T10:46:48.119Z,101381.59
2018-10-19T10:49:16.353Z,101382.61
2018-10-19T10:51:45.273Z,101377.19
2018-10-19T10:54:13.515Z,101372.39
2018-10-19T10:56:42.759Z,101375.02
2018-10-19T10:59:11.458Z,101374.22
2018-10-19T11:01:39.657Z,101365.39
2018-10-19T11:04:07.818Z,101373.77
2018-10-19T11:06:35.923Z,101365.31
2018-10-19T11:09:07.001Z,101362.91
2018-10-19T11:11:35.417Z,101367.67
2018-10-19T11:14:03.576Z,101365.16
2018-10-19T11:16:31.750Z,101354.55
2018-10-19T11:18:59.942Z,101350.01
2018-10-19T11:21:28.135Z,101346.31
2018-10-19T11:23:56.329Z,101359.13
2018-10-19T11:26:24.495Z,101354.70
2018-10-19T11:28:52.680Z,101347.27
2018-10-19T11:31:20.924Z,101342.06
2018-10-19T11:33:49.055Z,101345.78
2018-10-19T11:36:17.245Z,101343.92
2018-10-19T11:38:45.440Z,101341.41
2018-10-19T11:41:13.631Z,101336.41
2018-10-19T11:43:41.794Z,101340.94
2018-10-19T11:46:10.028Z,101342.04
2018-10-19T11:48:38.121Z,101339.41
2018-10-19T11:51:06.328Z,101341.15
2018-10-19T11:53:34.450Z,101338.84
2018-10-19T11:56:02.583Z,101336.09
2018-10-19T11:58:30.745Z,101333.13
2018-10-19T12:00:58.922Z,101336.48
2018-10-19T12:03:27.118Z,101329.66
2018-10-19T12:05:55.332Z,101328.70
2018-10-19T12:08:23.526Z,101328.23
2018-10-19T12:10:51.729Z,101323.86
2018-10-19T12:13:19.821Z,101323.15
2018-10-19T12:15:48.041Z,101316.73
2018-10-19T12:18:16.224Z,101315.43
2018-10-19T12:20:44.409Z,101315.63
2018-10-19T12:23:12.567Z,101315.60
2018-10-19T12:25:40.774Z,101317.95
2018-10-19T12:28:08.934Z,101321.17
2018-10-19T12:30:37.105Z,101311.37
2018-10-19T12:33:05.343Z,101314.50
2018-10-19T12:35:33.568Z,101312.50
2018-10-19T12:38:01.620Z,101314.83
2018-10-19T12:40:29.751Z,101313.64
2018-10-19T12:42:57.945Z,101308.31
2018-10-19T12:46:42.139Z,101309.17
2018-10-19T12:49:11.532Z,101308.39
2018-10-19T12:51:39.837Z,101301.59
2018-10-19T12:54:08.406Z,101295.30
2018-10-19T12:56:36.745Z,101295.53
2018-10-19T12:59:05.446Z,101289.39
2018-10-19T13:01:33.839Z,101295.91
2018-10-19T13:04:02.463Z,101290.31
2018-10-19T13:06:30.826Z,101290.31
2018-10-19T13:08:59.244Z,101279.66
2018-10-19T13:11:27.517Z,101274.49
2018-10-19T13:13:55.741Z,101270.02
2018-10-19T13:16:24.150Z,101272.50
2018-10-19T13:18:52.767Z,101275.16
2018-10-19T13:21:21.045Z,101276.20
2018-10-19T13:23:49.285Z,101271.55
2018-10-19T13:26:17.465Z,101270.31
2018-10-19T13:28:45.639Z,101275.47
2018-10-19T13:31:13.756Z,101274.59
2018-10-19T13:33:41.912Z,101277.09
2018-10-19T13:36:11.243Z,101280.66
2018-10-19T13:38:39.395Z,101278.67
2018-10-19T13:41:07.680Z,101271.36
2018-10-19T13:43:36.206Z,101271.31
2018-10-19T13:46:04.699Z,101272.48
2018-10-19T13:48:32.920Z,101266.31
2018-10-19T13:51:01.225Z,101269.39
2018-10-19T13:53:29.348Z,101262.95
2018-10-19T13:55:57.564Z,101257.88
2018-10-19T13:58:26.646Z,101253.56
2018-10-19T14:00:54.904Z,101259.00
2018-10-19T14:03:23.089Z,101260.17
2018-10-19T14:05:51.296Z,101257.16
2018-10-19T14:08:19.709Z,101257.92
2018-10-19T14:10:47.958Z,101256.68
2018-10-19T14:13:16.090Z,101253.98
2018-10-19T14:15:44.294Z,101247.41
2018-10-19T14:18:13.033Z,101247.16
2018-10-19T14:20:41.426Z,101253.53
2018-10-19T14:23:09.827Z,101251.34
2018-10-19T14:25:37.928Z,101251.81
2018-10-19T14:28:06.390Z,101246.72
2018-10-19T14:30:35.401Z,101251.66
2018-10-19T14:33:03.897Z,101252.20
2018-10-19T14:35:32.233Z,101248.54
2018-10-19T14:38:00.445Z,101254.69
2018-10-19T14:40:28.797Z,101253.59
2018-10-19T14:42:57.003Z,101261.07
2018-10-19T14:45:25.621Z,101256.79
2018-10-19T14:47:53.878Z,101251.83
2018-10-19T14:50:22.195Z,101253.80
2018-10-19T14:52:50.437Z,101252.67
2018-10-19T14:55:19.188Z,101258.86
2018-10-19T14:57:47.356Z,101257.78
2018-10-19T15:00:16.988Z,101253.80
2018-10-19T15:02:45.346Z,101254.41
2018-10-19T15:05:15.219Z,101247.47
2018-10-19T15:07:43.538Z,101246.34
2018-10-19T15:10:14.953Z,101246.20
2018-10-19T15:12:44.386Z,101237.20
2018-10-19T15:15:15.670Z,101244.46
2018-10-19T15:17:44.085Z,101246.59
2018-10-19T15:20:13.184Z,101247.58
2018-10-19T15:22:41.481Z,101245.84
2018-10-19T15:25:10.253Z,101248.53
2018-10-19T15:27:40.110Z,101245.53
2018-10-19T15:30:11.166Z,101258.34
2018-10-19T15:32:40.452Z,101251.11
2018-10-19T15:35:09.923Z,101247.63
2018-10-19T15:37:38.216Z,101251.90
2018-10-19T15:40:08.102Z,101258.20
2018-10-19T15:42:37.295Z,101254.66
2018-10-19T15:45:09.317Z,101262.95
2018-10-19T15:47:37.928Z,101256.67
2018-10-19T15:50:07.337Z,101256.78
2018-10-19T15:52:35.541Z,101263.40
2018-10-19T15:55:04.428Z,101261.94
2018-10-19T15:57:33.525Z,101261.98
2018-10-19T16:00:03.524Z,101264.13
2018-10-19T16:02:32.319Z,101257.06
2018-10-19T16:05:00.697Z,101257.84
2018-10-19T16:07:28.829Z,101260.59
2018-10-19T16:09:56.987Z,101261.80
2018-10-19T16:12:25.171Z,101264.05
2018-10-19T16:14:53.377Z,101268.45
2018-10-19T16:17:21.702Z,101268.27
2018-10-19T16:19:50.038Z,101273.39
2018-10-19T16:22:19.246Z,101272.99
2018-10-19T16:24:47.418Z,101277.98
2018-10-19T16:27:15.999Z,101273.91
2018-10-19T16:29:44.263Z,101273.98
2018-10-19T16:32:13.288Z,101273.19
2018-10-19T16:34:41.717Z,101277.06
2018-10-19T16:37:11.471Z,101273.44
2018-10-19T16:39:39.828Z,101275.52
2018-10-19T16:42:08.256Z,101271.27
2018-10-19T16:44:36.422Z,101268.70
2018-10-19T16:47:05.886Z,101264.97
2018-10-19T16:49:34.113Z,101261.23
2018-10-19T16:52:02.557Z,101265.13
2018-10-19T16:54:31.170Z,101270.98
2018-10-19T16:56:59.561Z,101265.47
2018-10-19T16:59:27.729Z,101264.70
2018-10-19T17:01:55.969Z,101270.20
2018-10-19T17:04:25.027Z,101275.52
2018-10-19T17:06:53.353Z,101273.33
2018-10-19T17:09:21.545Z,101277.94
2018-10-19T17:11:49.693Z,101283.86
2018-10-19T17:14:17.879Z,101283.02
2018-10-19T17:16:46.041Z,101285.00
2018-10-19T17:19:14.304Z,101285.41
2018-10-19T17:21:43.290Z,101285.83
2018-10-19T17:24:11.550Z,101283.93
2018-10-19T17:26:39.630Z,101289.26
2018-10-19T17:29:08.541Z,101289.37
2018-10-19T17:31:38.542Z,101294.91
2018-10-19T17:34:06.707Z,101291.56
2018-10-19T17:36:35.058Z,101286.14
2018-10-19T17:39:04.962Z,101293.45
2018-10-19T17:41:33.340Z,101293.66
2018-10-19T17:44:01.497Z,101293.12
2018-10-19T17:46:29.848Z,101296.16
2018-10-19T17:48:58.607Z,101305.27
2018-10-19T17:51:26.975Z,101311.37
2018-10-19T17:53:55.572Z,101302.22
2018-10-19T17:56:24.020Z,101310.05
2018-10-19T17:58:52.182Z,101311.90
2018-10-19T18:01:20.341Z,101306.28
2018-10-19T18:03:49.225Z,101309.02
2018-10-19T18:06:17.713Z,101317.38
2018-10-19T18:08:46.025Z,101311.30
2018-10-19T18:11:15.179Z,101318.91
2018-10-19T18:13:43.517Z,101322.33
2018-10-19T18:16:11.998Z,101330.31
2018-10-19T18:18:40.256Z,101328.84
2018-10-19T18:21:08.733Z,101325.70
2018-10-19T18:23:36.891Z,101324.56
2018-10-19T18:26:05.240Z,101326.05
2018-10-19T18:28:33.569Z,101328.33
2018-10-19T18:31:01.922Z,101330.09
2018-10-19T18:33:30.597Z,101346.52
2018-10-19T18:35:58.840Z,101329.11
2018-10-19T18:38:27.088Z,101331.64
2018-10-19T18:40:55.341Z,101337.70
2018-10-19T18:43:23.695Z,101350.89
2018-10-19T18:45:51.970Z,101354.31
2018-10-19T18:48:20.380Z,101355.86
2018-10-19T18:50:48.953Z,101350.17
2018-10-19T18:53:17.486Z,101344.77
2018-10-19T18:55:45.607Z,101354.88
2018-10-19T18:58:14.227Z,101358.42
2018-10-19T19:00:42.487Z,101359.66
2018-10-19T19:03:10.785Z,101358.42
2018-10-19T19:05:38.997Z,101350.59
2018-10-19T19:08:07.731Z,101362.34
2018-10-19T19:10:35.935Z,101368.53
2018-10-19T19:13:09.957Z,101364.05
2018-10-19T19:15:38.175Z,101366.76
2018-10-19T19:18:06.575Z,101369.75
2018-10-19T19:20:34.733Z,101367.77
2018-10-19T19:23:03.122Z,101372.17
2018-10-19T19:25:38.169Z,101371.23
2018-10-19T19:28:06.593Z,101373.80
2018-10-19T19:30:34.803Z,101374.66
2018-10-19T19:33:08.917Z,101375.23
2018-10-19T19:35:37.100Z,101375.66
2018-10-19T19:38:05.776Z,101373.59
2018-10-19T19:40:40.552Z,101377.34
2018-10-19T19:43:08.782Z,101374.92
2018-10-19T19:45:37.695Z,101375.35
2018-10-19T19:48:12.066Z,101376.59
2018-10-19T19:50:40.316Z,101378.36
2018-10-19T19:53:08.979Z,101382.84
2018-10-19T19:55:37.094Z,101384.41
2018-10-19T19:58:05.767Z,101385.76
2018-10-19T20:00:34.262Z,101386.68
2018-10-19T20:03:02.473Z,101381.26
2018-10-19T20:05:30.794Z,101388.30
2018-10-19T20:07:59.327Z,101386.97
2018-10-19T20:10:27.545Z,101391.99
2018-10-19T20:12:55.983Z,101397.27
2018-10-19T20:15:24.899Z,101397.58
2018-10-19T20:17:53.865Z,101401.39
2018-10-19T20:20:23.066Z,101409.50
2018-10-19T20:22:52.463Z,101400.02
2018-10-19T20:25:21.697Z,101401.30
2018-10-19T20:27:49.914Z,101408.06
2018-10-19T20:30:18.307Z,101408.12
2018-10-19T20:32:46.503Z,101406.54
2018-10-19T20:35:14.927Z,101399.64
2018-10-19T20:37:43.911Z,101400.92
2018-10-19T20:40:12.623Z,101406.61
2018-10-19T20:42:41.036Z,101404.58
2018-10-19T20:45:09.545Z,101398.05
2018-10-19T20:47:38.235Z,101408.23
2018-10-19T20:50:06.505Z,101405.56
2018-10-19T20:52:34.797Z,101405.91
2018-10-19T20:55:03.119Z,101405.27
2018-10-19T20:57:32.032Z,101404.70
2018-10-19T21:00:00.457Z,101403.05
2018-10-19T21:02:28.681Z,101404.44
2018-10-19T21:04:57.081Z,101400.63
2018-10-19T21:07:26.453Z,101404.50
2018-10-19T21:09:54.783Z,101407.50
2018-10-19T21:12:23.919Z,101402.83
2018-10-19T21:14:52.112Z,101413.83
2018-10-19T21:17:20.584Z,101397.80
2018-10-19T21:19:48.784Z,101394.29
2018-10-19T21:22:16.979Z,101396.45
2018-10-19T21:24:46.308Z,101394.32
2018-10-19T21:27:14.515Z,101394.52
2018-10-19T21:29:42.723Z,101388.58
2018-10-19T21:32:10.941Z,101391.28
2018-10-19T21:34:39.247Z,101393.17
2018-10-19T21:37:07.410Z,101393.81
2018-10-19T21:39:35.690Z,101391.67
2018-10-19T21:42:04.105Z,101388.66
2018-10-19T21:44:32.344Z,101381.48
2018-10-19T21:47:00.775Z,101390.09
2018-10-19T21:49:29.837Z,101385.23
2018-10-19T21:51:58.194Z,101386.27
2018-10-19T21:54:27.009Z,101383.42
2018-10-19T21:56:55.251Z,101387.31
2018-10-19T21:59:23.697Z,101384.84
2018-10-19T22:01:52.068Z,101380.00
2018-10-19T22:04:20.872Z,101391.27
2018-10-19T22:06:49.351Z,101401.75
2018-10-19T22:09:18.086Z,101402.96
2018-10-19T22:11:46.530Z,101401.50
2018-10-19T22:14:14.785Z,101401.66
2018-10-19T22:16:43.247Z,101400.12
2018-10-19T22:19:11.669Z,101404.76
2018-10-19T22:21:40.545Z,101407.41
2018-10-19T22:24:09.640Z,101409.31
2018-10-19T22:26:38.342Z,101406.05
2018-10-19T22:29:06.819Z,101411.89
2018-10-19T22:31:36.218Z,101403.91
2018-10-19T22:34:04.628Z,101406.95
2018-10-19T22:36:33.998Z,101405.34
2018-10-19T22:39:02.998Z,101406.95
2018-10-19T22:41:31.340Z,101408.05
2018-10-19T22:44:00.272Z,101419.04
2018-10-19T22:46:28.612Z,101414.20
2018-10-19T22:48:56.817Z,101405.34
2018-10-19T22:51:25.238Z,101409.89
2018-10-19T22:53:53.460Z,101408.00
2018-10-19T22:56:21.776Z,101409.97
2018-10-19T22:58:50.468Z,101410.34
2018-10-19T23:01:18.644Z,101407.70
2018-10-19T23:03:46.897Z,101404.16
2018-10-19T23:06:17.142Z,101401.80
2018-10-19T23:08:45.327Z,101406.98
2018-10-19T23:11:15.468Z,101408.55
2018-10-19T23:13:44.217Z,101406.35
2018-10-19T23:16:12.411Z,101401.06
2018-10-19T23:18:40.599Z,101404.41
2018-10-19T23:21:08.887Z,101408.23
2018-10-19T23:23:38.077Z,101411.69
2018-10-19T23:26:06.213Z,101403.20
2018-10-19T23:28:37.111Z,101396.26
2018-10-19T23:31:06.515Z,101394.20
2018-10-19T23:33:35.466Z,101396.96
2018-10-19T23:36:03.781Z,101404.00
2018-10-19T23:38:32.121Z,101411.25
2018-10-19T23:41:00.339Z,101410.24
2018-10-19T23:43:28.681Z,101411.39
2018-10-19T23:45:56.919Z,101413.10
2018-10-19T23:48:25.869Z,101420.05
2018-10-19T23:50:54.237Z,101424.94
2018-10-19T23:53:22.443Z,101424.40
2018-10-19T23:55:50.795Z,101421.65
2018-10-19T23:58:19.887Z,101419.66
